RYR7445 EGSS-LFOT
Flight info
| Callsign | RYR7445 |
|---|---|
| Flight time | 0h 53m |
| Altitude | 26000 |
| Route | NUGBO M183 SILVA Q41 COWLY/N0384F270 UT71 VAPID UN859 AMB |
| Aircraft | B738/M-SDE2E3FGHIRWXY/LB1 |
Departure
| Time | 2026-05-04 19:30 |
|---|---|
| Airport | London Stansted Airport (EGSS) |
Arrival
| Time | 2026-05-04 20:23 |
|---|---|
| Airport | Tours Val de Loire Airport (LFOT) |
| Time | Latitude | Longitude | Altitude | Speed | Heading |
|---|---|---|---|---|---|
| 2026-05-04 18:52 | 51.89408 | 0.25769 | 348 ft | 0 kts | 106° |
| 2026-05-04 19:15 | 51.89411 | 0.25753 | 348 ft | 3 kts | 106° |
| 2026-05-04 19:15 | 51.89416 | 0.25723 | 351 ft | 2 kts | 106° |
| 2026-05-04 19:16 | 51.89419 | 0.25705 | 355 ft | 3 kts | 117° |
| 2026-05-04 19:16 | 51.89429 | 0.25687 | 355 ft | 3 kts | 172° |
| 2026-05-04 19:16 | 51.89447 | 0.25691 | 358 ft | 3 kts | 206° |
| 2026-05-04 19:16 | 51.89461 | 0.25705 | 358 ft | 1 kts | 223° |
| 2026-05-04 19:17 | 51.89466 | 0.25711 | 358 ft | 0 kts | 223° |
| 2026-05-04 19:20 | 51.89453 | 0.25693 | 351 ft | 7 kts | 223° |
| 2026-05-04 19:20 | 51.89400 | 0.25613 | 348 ft | 11 kts | 223° |
| 2026-05-04 19:20 | 51.89342 | 0.25527 | 348 ft | 9 kts | 223° |
| 2026-05-04 19:20 | 51.89325 | 0.25502 | 348 ft | 3 kts | 222° |
| 2026-05-04 19:21 | 51.89309 | 0.25479 | 351 ft | 3 kts | 223° |
| 2026-05-04 19:21 | 51.89294 | 0.25455 | 348 ft | 3 kts | 223° |
| 2026-05-04 19:21 | 51.89279 | 0.25432 | 353 ft | 3 kts | 223° |
| 2026-05-04 19:21 | 51.89265 | 0.25410 | 348 ft | 3 kts | 223° |
| 2026-05-04 19:22 | 51.89251 | 0.25390 | 350 ft | 3 kts | 223° |
| 2026-05-04 19:22 | 51.89239 | 0.25372 | 353 ft | 2 kts | 223° |
| 2026-05-04 19:22 | 51.89229 | 0.25357 | 351 ft | 2 kts | 223° |
| 2026-05-04 19:22 | 51.89218 | 0.25341 | 348 ft | 2 kts | 223° |
| 2026-05-04 19:23 | 51.89204 | 0.25320 | 352 ft | 4 kts | 222° |
| 2026-05-04 19:23 | 51.89171 | 0.25271 | 348 ft | 11 kts | 223° |
| 2026-05-04 19:23 | 51.89080 | 0.25134 | 348 ft | 22 kts | 223° |
| 2026-05-04 19:23 | 51.88966 | 0.24962 | 350 ft | 22 kts | 223° |
| 2026-05-04 19:24 | 51.88854 | 0.24795 | 348 ft | 22 kts | 223° |
| 2026-05-04 19:24 | 51.88746 | 0.24634 | 348 ft | 21 kts | 223° |
| 2026-05-04 19:24 | 51.88640 | 0.24474 | 348 ft | 20 kts | 223° |
| 2026-05-04 19:24 | 51.88538 | 0.24321 | 350 ft | 20 kts | 221° |
| 2026-05-04 19:25 | 51.88440 | 0.24172 | 348 ft | 19 kts | 223° |
| 2026-05-04 19:25 | 51.88345 | 0.24030 | 350 ft | 18 kts | 222° |
| 2026-05-04 19:25 | 51.88256 | 0.23886 | 351 ft | 18 kts | 229° |
| 2026-05-04 19:25 | 51.88170 | 0.23765 | 348 ft | 13 kts | 227° |
| 2026-05-04 19:26 | 51.88119 | 0.23688 | 348 ft | 7 kts | 221° |
| 2026-05-04 19:26 | 51.88105 | 0.23669 | 352 ft | 1 kts | 219° |
| 2026-05-04 19:26 | 51.88077 | 0.23630 | 348 ft | 12 kts | 221° |
| 2026-05-04 19:26 | 51.87986 | 0.23492 | 348 ft | 20 kts | 222° |
| 2026-05-04 19:27 | 51.87899 | 0.23361 | 352 ft | 14 kts | 222° |
| 2026-05-04 19:27 | 51.87838 | 0.23272 | 349 ft | 10 kts | 222° |
| 2026-05-04 19:27 | 51.87774 | 0.23174 | 348 ft | 17 kts | 223° |
| 2026-05-04 19:27 | 51.87733 | 0.23045 | 348 ft | 10 kts | 286° |
| 2026-05-04 19:28 | 51.87767 | 0.22973 | 352 ft | 0 kts | 313° |
| 2026-05-04 19:28 | 51.87800 | 0.22914 | 348 ft | 12 kts | 313° |
| 2026-05-04 19:28 | 51.87862 | 0.22808 | 338 ft | 15 kts | 313° |
| 2026-05-04 19:28 | 51.87935 | 0.22693 | 339 ft | 14 kts | 331° |
| 2026-05-04 19:29 | 51.88021 | 0.22760 | 336 ft | 17 kts | 43° |
| 2026-05-04 19:29 | 51.88206 | 0.23037 | 334 ft | 70 kts | 43° |
| 2026-05-04 19:29 | 51.88738 | 0.23838 | 336 ft | 136 kts | 43° |
| 2026-05-04 19:29 | 51.89541 | 0.25045 | 656 ft | 165 kts | 41° |
| 2026-05-04 19:30 | 51.90361 | 0.26310 | 1622 ft | 161 kts | 43° |
| 2026-05-04 19:30 | 51.91184 | 0.27570 | 2481 ft | 161 kts | 42° |
| 2026-05-04 19:30 | 51.92051 | 0.28845 | 3107 ft | 181 kts | 36° |
| 2026-05-04 19:30 | 51.93269 | 0.29826 | 3395 ft | 210 kts | 14° |
| 2026-05-04 19:31 | 51.94796 | 0.29907 | 3687 ft | 231 kts | 347° |
| 2026-05-04 19:31 | 51.96290 | 0.28668 | 4024 ft | 255 kts | 314° |
| 2026-05-04 19:31 | 51.97144 | 0.26152 | 4863 ft | 257 kts | 283° |
| 2026-05-04 19:31 | 51.97447 | 0.23287 | 5799 ft | 260 kts | 277° |
| 2026-05-04 19:32 | 51.97662 | 0.20364 | 6724 ft | 262 kts | 277° |
| 2026-05-04 19:32 | 51.97890 | 0.17421 | 7511 ft | 266 kts | 277° |
| 2026-05-04 19:32 | 51.98141 | 0.14419 | 7934 ft | 269 kts | 278° |
| 2026-05-04 19:32 | 51.98435 | 0.11393 | 8691 ft | 273 kts | 279° |
| 2026-05-04 19:33 | 51.98754 | 0.08335 | 9580 ft | 276 kts | 279° |
| 2026-05-04 19:33 | 51.98893 | 0.05215 | 10328 ft | 282 kts | 262° |
| 2026-05-04 19:33 | 51.98495 | 0.02092 | 11131 ft | 284 kts | 257° |
| 2026-05-04 19:33 | 51.98059 | -0.01097 | 11646 ft | 298 kts | 258° |
| 2026-05-04 19:34 | 51.97615 | -0.04437 | 12005 ft | 311 kts | 258° |
| 2026-05-04 19:34 | 51.97168 | -0.07846 | 12026 ft | 308 kts | 258° |
| 2026-05-04 19:34 | 51.96726 | -0.11233 | 12088 ft | 310 kts | 258° |
| 2026-05-04 19:34 | 51.96272 | -0.14717 | 12578 ft | 318 kts | 258° |
| 2026-05-04 19:35 | 51.95778 | -0.18222 | 13471 ft | 320 kts | 252° |
| 2026-05-04 19:35 | 51.94758 | -0.21248 | 14079 ft | 327 kts | 229° |
| 2026-05-04 19:35 | 51.93646 | -0.22886 | 14620 ft | 326 kts | 217° |
| 2026-05-04 19:35 | 51.91814 | -0.25060 | 15419 ft | 327 kts | 216° |
| 2026-05-04 19:36 | 51.89969 | -0.27243 | 15876 ft | 330 kts | 216° |
| 2026-05-04 19:36 | 51.88118 | -0.29444 | 16294 ft | 336 kts | 216° |
| 2026-05-04 19:36 | 51.86234 | -0.31695 | 17103 ft | 335 kts | 215° |
| 2026-05-04 19:36 | 51.84143 | -0.33388 | 17799 ft | 339 kts | 195° |
| 2026-05-04 19:37 | 51.81789 | -0.33736 | 18448 ft | 344 kts | 176° |
| 2026-05-04 19:37 | 51.79410 | -0.33291 | 19096 ft | 347 kts | 173° |
| 2026-05-04 19:37 | 51.77006 | -0.32771 | 19702 ft | 350 kts | 173° |
| 2026-05-04 19:37 | 51.74587 | -0.32236 | 20340 ft | 352 kts | 173° |
| 2026-05-04 19:38 | 51.72155 | -0.31705 | 20961 ft | 355 kts | 173° |
| 2026-05-04 19:38 | 51.69692 | -0.31179 | 21564 ft | 358 kts | 173° |
| 2026-05-04 19:38 | 51.67215 | -0.30660 | 22170 ft | 360 kts | 173° |
| 2026-05-04 19:38 | 51.64719 | -0.30145 | 22790 ft | 363 kts | 173° |
| 2026-05-04 19:39 | 51.62212 | -0.29634 | 23386 ft | 365 kts | 173° |
| 2026-05-04 19:39 | 51.59670 | -0.29119 | 23890 ft | 368 kts | 173° |
| 2026-05-04 19:39 | 51.57129 | -0.28607 | 24388 ft | 370 kts | 173° |
| 2026-05-04 19:39 | 51.54576 | -0.28094 | 24887 ft | 372 kts | 173° |
| 2026-05-04 19:40 | 51.51999 | -0.27577 | 25372 ft | 374 kts | 173° |
| 2026-05-04 19:40 | 51.49369 | -0.27051 | 25472 ft | 387 kts | 173° |
| 2026-05-04 19:40 | 51.46655 | -0.26510 | 25573 ft | 399 kts | 173° |
| 2026-05-04 19:40 | 51.43856 | -0.25952 | 25723 ft | 409 kts | 173° |
| 2026-05-04 19:41 | 51.41026 | -0.25387 | 26102 ft | 412 kts | 173° |
| 2026-05-04 19:41 | 51.38222 | -0.24828 | 26609 ft | 411 kts | 173° |
| 2026-05-04 19:41 | 51.35371 | -0.24260 | 27008 ft | 413 kts | 174° |
| 2026-05-04 19:41 | 51.32487 | -0.23688 | 27008 ft | 422 kts | 174° |
| 2026-05-04 19:42 | 51.29562 | -0.23108 | 27023 ft | 428 kts | 174° |
| 2026-05-04 19:42 | 51.26577 | -0.22516 | 27029 ft | 432 kts | 173° |
| 2026-05-04 19:42 | 51.23616 | -0.21930 | 27018 ft | 429 kts | 173° |
| 2026-05-04 19:42 | 51.21343 | -0.21480 | 27011 ft | 427 kts | 174° |
| 2026-05-04 19:43 | 51.18406 | -0.20900 | 27023 ft | 427 kts | 173° |
| 2026-05-04 19:43 | 51.15431 | -0.20313 | 27021 ft | 428 kts | 173° |
| 2026-05-04 19:43 | 51.12473 | -0.19730 | 27022 ft | 428 kts | 173° |
| 2026-05-04 19:43 | 51.09523 | -0.19150 | 27020 ft | 427 kts | 173° |
| 2026-05-04 19:44 | 51.06566 | -0.18569 | 27022 ft | 427 kts | 173° |
| 2026-05-04 19:44 | 51.03632 | -0.17994 | 27023 ft | 427 kts | 173° |
| 2026-05-04 19:44 | 51.00670 | -0.17413 | 27021 ft | 427 kts | 174° |
| 2026-05-04 19:44 | 50.97722 | -0.16836 | 27003 ft | 427 kts | 173° |
| 2026-05-04 19:45 | 50.94765 | -0.16259 | 26996 ft | 428 kts | 174° |
| 2026-05-04 19:45 | 50.91807 | -0.15681 | 26997 ft | 428 kts | 174° |
| 2026-05-04 19:45 | 50.88856 | -0.15106 | 26994 ft | 428 kts | 174° |
| 2026-05-04 19:45 | 50.85900 | -0.14531 | 26996 ft | 428 kts | 174° |
| 2026-05-04 19:46 | 50.82950 | -0.13957 | 26998 ft | 428 kts | 174° |
| 2026-05-04 19:46 | 50.79995 | -0.13383 | 26996 ft | 428 kts | 174° |
| 2026-05-04 19:46 | 50.77047 | -0.12812 | 26995 ft | 427 kts | 174° |
| 2026-05-04 19:46 | 50.74128 | -0.12246 | 26995 ft | 427 kts | 174° |
| 2026-05-04 19:47 | 50.71175 | -0.11675 | 26996 ft | 427 kts | 174° |
| 2026-05-04 19:47 | 50.68230 | -0.11106 | 27000 ft | 427 kts | 174° |
| 2026-05-04 19:47 | 50.65278 | -0.10536 | 27003 ft | 427 kts | 174° |
| 2026-05-04 19:47 | 50.62330 | -0.09968 | 27003 ft | 427 kts | 174° |
| 2026-05-04 19:48 | 50.59381 | -0.09401 | 27000 ft | 427 kts | 173° |
| 2026-05-04 19:48 | 50.56431 | -0.08834 | 27004 ft | 427 kts | 173° |
| 2026-05-04 19:48 | 50.53474 | -0.08266 | 27002 ft | 427 kts | 173° |
| 2026-05-04 19:48 | 50.50529 | -0.07701 | 27007 ft | 427 kts | 173° |
| 2026-05-04 19:49 | 50.47574 | -0.07136 | 27007 ft | 427 kts | 173° |
| 2026-05-04 19:49 | 50.44622 | -0.06571 | 27005 ft | 427 kts | 173° |
| 2026-05-04 19:49 | 50.41671 | -0.06007 | 27004 ft | 427 kts | 173° |
| 2026-05-04 19:49 | 50.38725 | -0.05445 | 27005 ft | 428 kts | 173° |
| 2026-05-04 19:50 | 50.35760 | -0.04880 | 27000 ft | 428 kts | 173° |
| 2026-05-04 19:50 | 50.32808 | -0.04318 | 27001 ft | 428 kts | 173° |
| 2026-05-04 19:50 | 50.29857 | -0.03757 | 27005 ft | 428 kts | 173° |
| 2026-05-04 19:50 | 50.26905 | -0.03197 | 27003 ft | 428 kts | 173° |
| 2026-05-04 19:51 | 50.23945 | -0.02636 | 27003 ft | 428 kts | 173° |
| 2026-05-04 19:51 | 50.20992 | -0.02076 | 27001 ft | 428 kts | 173° |
| 2026-05-04 19:51 | 50.18036 | -0.01517 | 27002 ft | 428 kts | 173° |
| 2026-05-04 19:51 | 50.15075 | -0.00958 | 27000 ft | 428 kts | 173° |
| 2026-05-04 19:52 | 50.12116 | -0.00399 | 27002 ft | 429 kts | 173° |
| 2026-05-04 19:52 | 50.09163 | 0.00246 | 27000 ft | 429 kts | 169° |
| 2026-05-04 19:52 | 50.06259 | 0.01299 | 27007 ft | 429 kts | 166° |
| 2026-05-04 19:52 | 50.03363 | 0.02470 | 27002 ft | 430 kts | 166° |
| 2026-05-04 19:53 | 50.00473 | 0.03665 | 26998 ft | 430 kts | 166° |
| 2026-05-04 19:53 | 49.97580 | 0.04845 | 26997 ft | 430 kts | 166° |
| 2026-05-04 19:53 | 49.94677 | 0.05914 | 26998 ft | 430 kts | 168° |
| 2026-05-04 19:53 | 49.91755 | 0.06909 | 26990 ft | 430 kts | 168° |
| 2026-05-04 19:54 | 49.88822 | 0.07880 | 26996 ft | 430 kts | 168° |
| 2026-05-04 19:54 | 49.85894 | 0.08847 | 26994 ft | 430 kts | 168° |
| 2026-05-04 19:54 | 49.82965 | 0.09823 | 26991 ft | 431 kts | 168° |
| 2026-05-04 19:54 | 49.80036 | 0.10807 | 26989 ft | 431 kts | 168° |
| 2026-05-04 19:55 | 49.77113 | 0.11797 | 26993 ft | 431 kts | 168° |
| 2026-05-04 19:55 | 49.74183 | 0.12792 | 26991 ft | 431 kts | 168° |
| 2026-05-04 19:55 | 49.71258 | 0.13788 | 26993 ft | 431 kts | 168° |
| 2026-05-04 19:55 | 49.68332 | 0.14784 | 26991 ft | 431 kts | 168° |
| 2026-05-04 19:56 | 49.65399 | 0.15783 | 26995 ft | 431 kts | 168° |
| 2026-05-04 19:56 | 49.62473 | 0.16777 | 26996 ft | 431 kts | 168° |
| 2026-05-04 19:56 | 49.59533 | 0.17774 | 26992 ft | 431 kts | 168° |
| 2026-05-04 19:56 | 49.56611 | 0.18765 | 26994 ft | 431 kts | 168° |
| 2026-05-04 19:57 | 49.53680 | 0.19757 | 26998 ft | 431 kts | 168° |
| 2026-05-04 19:57 | 49.50749 | 0.20748 | 26993 ft | 431 kts | 168° |
| 2026-05-04 19:57 | 49.47816 | 0.21738 | 26991 ft | 431 kts | 168° |
| 2026-05-04 19:57 | 49.44889 | 0.22724 | 26966 ft | 431 kts | 168° |
| 2026-05-04 19:58 | 49.41956 | 0.23712 | 26969 ft | 431 kts | 168° |
| 2026-05-04 19:58 | 49.39064 | 0.24684 | 26968 ft | 431 kts | 168° |
| 2026-05-04 19:58 | 49.36134 | 0.25669 | 26968 ft | 431 kts | 168° |
| 2026-05-04 19:58 | 49.33170 | 0.26663 | 26970 ft | 431 kts | 168° |
| 2026-05-04 19:59 | 49.30239 | 0.27645 | 26971 ft | 431 kts | 168° |
| 2026-05-04 19:59 | 49.27314 | 0.28624 | 26966 ft | 431 kts | 168° |
| 2026-05-04 19:59 | 49.24383 | 0.29604 | 26971 ft | 431 kts | 168° |
| 2026-05-04 19:59 | 49.21460 | 0.30579 | 26970 ft | 431 kts | 168° |
| 2026-05-04 20:00 | 49.18550 | 0.31550 | 26949 ft | 420 kts | 168° |
| 2026-05-04 20:00 | 49.15756 | 0.32482 | 26945 ft | 403 kts | 168° |
| 2026-05-04 20:00 | 49.13067 | 0.33379 | 26955 ft | 388 kts | 168° |
| 2026-05-04 20:00 | 49.10475 | 0.34241 | 26948 ft | 376 kts | 169° |
| 2026-05-04 20:01 | 49.07908 | 0.35093 | 26973 ft | 379 kts | 169° |
| 2026-05-04 20:01 | 49.05325 | 0.35948 | 26942 ft | 377 kts | 169° |
| 2026-05-04 20:01 | 49.02736 | 0.36804 | 26182 ft | 382 kts | 168° |
| 2026-05-04 20:01 | 49.00138 | 0.37663 | 25611 ft | 382 kts | 168° |
| 2026-05-04 20:02 | 48.97548 | 0.38518 | 25172 ft | 380 kts | 168° |
| 2026-05-04 20:02 | 48.94977 | 0.39367 | 24719 ft | 378 kts | 168° |
| 2026-05-04 20:02 | 48.92411 | 0.40214 | 24258 ft | 376 kts | 168° |
| 2026-05-04 20:02 | 48.89863 | 0.41053 | 23820 ft | 375 kts | 167° |
| 2026-05-04 20:03 | 48.87316 | 0.41891 | 23333 ft | 374 kts | 167° |
| 2026-05-04 20:03 | 48.84814 | 0.42715 | 22848 ft | 371 kts | 167° |
| 2026-05-04 20:03 | 48.82266 | 0.43552 | 22394 ft | 369 kts | 167° |
| 2026-05-04 20:03 | 48.79767 | 0.44372 | 21950 ft | 366 kts | 167° |
| 2026-05-04 20:04 | 48.77292 | 0.45183 | 21532 ft | 362 kts | 168° |
| 2026-05-04 20:04 | 48.74880 | 0.45974 | 21105 ft | 356 kts | 168° |
| 2026-05-04 20:04 | 48.72477 | 0.46760 | 20696 ft | 350 kts | 168° |
| 2026-05-04 20:04 | 48.70113 | 0.47533 | 20290 ft | 345 kts | 168° |
| 2026-05-04 20:05 | 48.67786 | 0.48293 | 19899 ft | 339 kts | 168° |
| 2026-05-04 20:05 | 48.65492 | 0.49041 | 19516 ft | 337 kts | 168° |
| 2026-05-04 20:05 | 48.63207 | 0.49786 | 19143 ft | 336 kts | 168° |
| 2026-05-04 20:05 | 48.60922 | 0.50530 | 18752 ft | 335 kts | 168° |
| 2026-05-04 20:06 | 48.58649 | 0.51270 | 18374 ft | 334 kts | 168° |
| 2026-05-04 20:06 | 48.56380 | 0.52007 | 17935 ft | 333 kts | 168° |
| 2026-05-04 20:06 | 48.54115 | 0.52742 | 17517 ft | 332 kts | 168° |
| 2026-05-04 20:06 | 48.51865 | 0.53472 | 17116 ft | 330 kts | 168° |
| 2026-05-04 20:07 | 48.49625 | 0.54198 | 16728 ft | 328 kts | 168° |
| 2026-05-04 20:07 | 48.47397 | 0.54919 | 16346 ft | 327 kts | 168° |
| 2026-05-04 20:07 | 48.45181 | 0.55636 | 15964 ft | 325 kts | 168° |
| 2026-05-04 20:07 | 48.42979 | 0.56348 | 15592 ft | 323 kts | 168° |
| 2026-05-04 20:08 | 48.40786 | 0.57057 | 15223 ft | 322 kts | 168° |
| 2026-05-04 20:08 | 48.38603 | 0.57761 | 14852 ft | 320 kts | 168° |
| 2026-05-04 20:08 | 48.36429 | 0.58462 | 14484 ft | 319 kts | 168° |
| 2026-05-04 20:08 | 48.34263 | 0.59160 | 14113 ft | 317 kts | 168° |
| 2026-05-04 20:09 | 48.32109 | 0.59853 | 13748 ft | 316 kts | 168° |
| 2026-05-04 20:09 | 48.29962 | 0.60544 | 13345 ft | 315 kts | 168° |
| 2026-05-04 20:09 | 48.27824 | 0.61231 | 12960 ft | 314 kts | 168° |
| 2026-05-04 20:09 | 48.25695 | 0.61914 | 12594 ft | 312 kts | 168° |
| 2026-05-04 20:10 | 48.23580 | 0.62592 | 12228 ft | 310 kts | 168° |
| 2026-05-04 20:10 | 48.21480 | 0.63266 | 11867 ft | 308 kts | 168° |
| 2026-05-04 20:10 | 48.19394 | 0.63933 | 11516 ft | 306 kts | 168° |
| 2026-05-04 20:10 | 48.17317 | 0.64598 | 11152 ft | 304 kts | 168° |
| 2026-05-04 20:11 | 48.15257 | 0.65257 | 10839 ft | 302 kts | 168° |
| 2026-05-04 20:11 | 48.13210 | 0.65910 | 10504 ft | 300 kts | 168° |
| 2026-05-04 20:11 | 48.11184 | 0.66573 | 10278 ft | 293 kts | 167° |
| 2026-05-04 20:11 | 48.09219 | 0.67199 | 10157 ft | 285 kts | 167° |
| 2026-05-04 20:12 | 48.07308 | 0.67806 | 10023 ft | 277 kts | 167° |
| 2026-05-04 20:12 | 48.05437 | 0.68401 | 9746 ft | 275 kts | 167° |
| 2026-05-04 20:12 | 48.03570 | 0.68994 | 9442 ft | 273 kts | 167° |
| 2026-05-04 20:12 | 48.01716 | 0.69583 | 9142 ft | 272 kts | 167° |
| 2026-05-04 20:13 | 47.99872 | 0.70169 | 8845 ft | 270 kts | 167° |
| 2026-05-04 20:13 | 47.98035 | 0.70752 | 8547 ft | 269 kts | 167° |
| 2026-05-04 20:13 | 47.96212 | 0.71330 | 8261 ft | 267 kts | 167° |
| 2026-05-04 20:13 | 47.94396 | 0.71905 | 7971 ft | 266 kts | 167° |
| 2026-05-04 20:14 | 47.92589 | 0.72477 | 7681 ft | 265 kts | 167° |
| 2026-05-04 20:14 | 47.90787 | 0.73048 | 7396 ft | 264 kts | 167° |
| 2026-05-04 20:14 | 47.88992 | 0.73616 | 7117 ft | 264 kts | 167° |
| 2026-05-04 20:14 | 47.87197 | 0.74183 | 6818 ft | 263 kts | 167° |
| 2026-05-04 20:15 | 47.85800 | 0.74624 | 6612 ft | 263 kts | 167° |
| 2026-05-04 20:15 | 47.84011 | 0.75189 | 6325 ft | 262 kts | 167° |
| 2026-05-04 20:15 | 47.82227 | 0.75752 | 6015 ft | 262 kts | 167° |
| 2026-05-04 20:15 | 47.80451 | 0.76311 | 5711 ft | 261 kts | 167° |
| 2026-05-04 20:16 | 47.78675 | 0.76871 | 5424 ft | 260 kts | 167° |
| 2026-05-04 20:16 | 47.76907 | 0.77427 | 5187 ft | 258 kts | 167° |
| 2026-05-04 20:16 | 47.75175 | 0.77971 | 5064 ft | 251 kts | 167° |
| 2026-05-04 20:16 | 47.73493 | 0.78499 | 4941 ft | 243 kts | 167° |
| 2026-05-04 20:17 | 47.72170 | 0.78914 | 4857 ft | 237 kts | 167° |
| 2026-05-04 20:17 | 47.71105 | 0.79249 | 4789 ft | 235 kts | 167° |
| 2026-05-04 20:17 | 47.69523 | 0.79746 | 4730 ft | 230 kts | 167° |
| 2026-05-04 20:17 | 47.67427 | 0.80404 | 4554 ft | 232 kts | 167° |
| 2026-05-04 20:18 | 47.66369 | 0.80736 | 4379 ft | 237 kts | 167° |
| 2026-05-04 20:18 | 47.64736 | 0.81121 | 4116 ft | 240 kts | 180° |
| 2026-05-04 20:18 | 47.63088 | 0.80763 | 3881 ft | 238 kts | 192° |
| 2026-05-04 20:18 | 47.61494 | 0.80141 | 3658 ft | 234 kts | 195° |
| 2026-05-04 20:19 | 47.59950 | 0.79502 | 3498 ft | 226 kts | 194° |
| 2026-05-04 20:19 | 47.58458 | 0.78892 | 3236 ft | 220 kts | 194° |
| 2026-05-04 20:19 | 47.56999 | 0.78303 | 2941 ft | 214 kts | 194° |
| 2026-05-04 20:19 | 47.55579 | 0.77732 | 2655 ft | 209 kts | 194° |
| 2026-05-04 20:20 | 47.54214 | 0.77182 | 2388 ft | 197 kts | 194° |
| 2026-05-04 20:20 | 47.52935 | 0.76667 | 2133 ft | 184 kts | 194° |
| 2026-05-04 20:20 | 47.51734 | 0.76184 | 1891 ft | 173 kts | 194° |
| 2026-05-04 20:20 | 47.50619 | 0.75735 | 1717 ft | 158 kts | 194° |
| 2026-05-04 20:21 | 47.49596 | 0.75323 | 1492 ft | 149 kts | 194° |
| 2026-05-04 20:21 | 47.48606 | 0.74926 | 1288 ft | 146 kts | 194° |
| 2026-05-04 20:21 | 47.46673 | 0.74154 | 884 ft | 144 kts | 196° |
| 2026-05-04 20:22 | 47.45711 | 0.73764 | 728 ft | 143 kts | 196° |
| 2026-05-04 20:22 | 47.44746 | 0.73377 | 552 ft | 144 kts | 195° |
| 2026-05-04 20:22 | 47.43798 | 0.72999 | 379 ft | 134 kts | 195° |
| 2026-05-04 20:22 | 47.43048 | 0.72692 | 365 ft | 83 kts | 195° |
| 2026-05-04 20:23 | 47.42596 | 0.72509 | 366 ft | 60 kts | 194° |
| 2026-05-04 20:23 | 47.42278 | 0.72380 | 368 ft | 22 kts | 196° |
| 2026-05-04 20:23 | 47.42204 | 0.72269 | 366 ft | 16 kts | 271° |
| 2026-05-04 20:23 | 47.42217 | 0.72185 | 363 ft | 0 kts | 287° |
| 2026-05-04 20:24 | 47.42218 | 0.72184 | 363 ft | 1 kts | 287° |
| 2026-05-04 20:24 | 47.42221 | 0.72165 | 369 ft | 3 kts | 286° |
| 2026-05-04 20:24 | 47.42228 | 0.72137 | 364 ft | 3 kts | 293° |
| 2026-05-04 20:25 | 47.42257 | 0.72085 | 362 ft | 10 kts | 325° |
| 2026-05-04 20:25 | 47.42332 | 0.72063 | 361 ft | 12 kts | 10° |
| 2026-05-04 20:25 | 47.42409 | 0.72094 | 367 ft | 11 kts | 15° |
| 2026-05-04 20:25 | 47.42483 | 0.72121 | 364 ft | 11 kts | 14° |
| 2026-05-04 20:26 | 47.42555 | 0.72150 | 365 ft | 11 kts | 14° |
| 2026-05-04 20:26 | 47.42596 | 0.72093 | 365 ft | 9 kts | 266° |
| 2026-05-04 20:26 | 47.42547 | 0.72043 | 368 ft | 9 kts | 204° |
| 2026-05-04 20:26 | 47.42560 | 0.71984 | 365 ft | 4 kts | 357° |
| 2026-05-04 20:27 | 47.42571 | 0.72007 | 366 ft | 2 kts | 71° |
| 2026-05-04 20:27 | 47.42572 | 0.72010 | 368 ft | 0 kts | 68° |